sensor_id;sensor_type;location;lat;lon;timestamp;P1;durP1;ratioP1;P2;durP2;ratioP2
51758;SDS011;66684;47.568;18.734;2023-08-17T00:00:05;12.70;;;9.65;;
51758;SDS011;66684;47.568;18.734;2023-08-17T00:02:35;13.23;;;10.23;;
51758;SDS011;66684;47.568;18.734;2023-08-17T00:05:01;13.15;;;9.30;;
51758;SDS011;66684;47.568;18.734;2023-08-17T00:07:27;13.75;;;9.68;;
51758;SDS011;66684;47.568;18.734;2023-08-17T00:09:53;13.50;;;9.80;;
51758;SDS011;66684;47.568;18.734;2023-08-17T00:12:19;10.70;;;9.45;;
51758;SDS011;66684;47.568;18.734;2023-08-17T00:14:44;12.88;;;9.38;;
51758;SDS011;66684;47.568;18.734;2023-08-17T00:17:10;10.70;;;9.60;;
51758;SDS011;66684;47.568;18.734;2023-08-17T00:19:36;11.82;;;10.60;;
51758;SDS011;66684;47.568;18.734;2023-08-17T00:22:02;14.30;;;11.52;;
51758;SDS011;66684;47.568;18.734;2023-08-17T00:24:29;12.25;;;10.02;;
51758;SDS011;66684;47.568;18.734;2023-08-17T00:26:55;11.68;;;10.32;;
51758;SDS011;66684;47.568;18.734;2023-08-17T00:29:20;14.73;;;10.80;;
51758;SDS011;66684;47.568;18.734;2023-08-17T00:31:47;12.57;;;10.80;;
51758;SDS011;66684;47.568;18.734;2023-08-17T00:34:13;13.20;;;10.38;;
51758;SDS011;66684;47.568;18.734;2023-08-17T00:36:39;14.10;;;10.95;;
51758;SDS011;66684;47.568;18.734;2023-08-17T00:39:04;18.62;;;10.70;;
51758;SDS011;66684;47.568;18.734;2023-08-17T00:41:30;10.88;;;9.77;;
51758;SDS011;66684;47.568;18.734;2023-08-17T00:43:56;16.67;;;10.98;;
51758;SDS011;66684;47.568;18.734;2023-08-17T00:46:22;15.27;;;11.45;;
51758;SDS011;66684;47.568;18.734;2023-08-17T00:48:49;14.25;;;11.63;;
51758;SDS011;66684;47.568;18.734;2023-08-17T00:51:16;14.93;;;11.93;;
51758;SDS011;66684;47.568;18.734;2023-08-17T00:53:42;13.80;;;11.15;;
51758;SDS011;66684;47.568;18.734;2023-08-17T00:56:08;14.35;;;11.90;;
51758;SDS011;66684;47.568;18.734;2023-08-17T00:58:34;14.95;;;11.52;;
51758;SDS011;66684;47.568;18.734;2023-08-17T01:01:00;13.25;;;11.73;;
51758;SDS011;66684;47.568;18.734;2023-08-17T01:03:28;15.05;;;12.25;;
51758;SDS011;66684;47.568;18.734;2023-08-17T01:05:55;12.40;;;11.15;;
51758;SDS011;66684;47.568;18.734;2023-08-17T01:08:22;13.27;;;11.12;;
51758;SDS011;66684;47.568;18.734;2023-08-17T01:10:57;13.82;;;11.27;;
51758;SDS011;66684;47.568;18.734;2023-08-17T01:13:35;16.12;;;12.18;;
51758;SDS011;66684;47.568;18.734;2023-08-17T01:16:11;16.00;;;12.77;;
51758;SDS011;66684;47.568;18.734;2023-08-17T01:18:40;12.88;;;11.63;;
51758;SDS011;66684;47.568;18.734;2023-08-17T01:21:08;12.60;;;11.30;;
51758;SDS011;66684;47.568;18.734;2023-08-17T01:23:37;12.52;;;11.00;;
51758;SDS011;66684;47.568;18.734;2023-08-17T01:26:03;12.20;;;11.00;;
51758;SDS011;66684;47.568;18.734;2023-08-17T01:28:29;13.10;;;10.60;;
51758;SDS011;66684;47.568;18.734;2023-08-17T01:30:56;12.10;;;10.98;;
51758;SDS011;66684;47.568;18.734;2023-08-17T01:33:33;13.65;;;10.57;;
51758;SDS011;66684;47.568;18.734;2023-08-17T01:38:59;12.13;;;10.57;;
51758;SDS011;66684;47.568;18.734;2023-08-17T01:41:27;12.40;;;10.60;;
51758;SDS011;66684;47.568;18.734;2023-08-17T01:43:53;12.43;;;10.93;;
51758;SDS011;66684;47.568;18.734;2023-08-17T01:46:20;17.33;;;10.70;;
51758;SDS011;66684;47.568;18.734;2023-08-17T01:48:46;11.80;;;10.60;;
51758;SDS011;66684;47.568;18.734;2023-08-17T01:51:16;12.77;;;11.43;;
51758;SDS011;66684;47.568;18.734;2023-08-17T01:53:47;11.82;;;10.65;;
51758;SDS011;66684;47.568;18.734;2023-08-17T01:56:13;12.70;;;10.52;;
51758;SDS011;66684;47.568;18.734;2023-08-17T01:58:39;12.93;;;10.85;;
51758;SDS011;66684;47.568;18.734;2023-08-17T02:01:05;15.48;;;11.10;;
51758;SDS011;66684;47.568;18.734;2023-08-17T02:03:31;15.43;;;11.45;;
51758;SDS011;66684;47.568;18.734;2023-08-17T02:05:57;19.00;;;11.55;;
51758;SDS011;66684;47.568;18.734;2023-08-17T02:08:27;14.55;;;12.07;;
51758;SDS011;66684;47.568;18.734;2023-08-17T02:10:53;13.52;;;11.32;;
51758;SDS011;66684;47.568;18.734;2023-08-17T02:13:19;12.25;;;9.93;;
51758;SDS011;66684;47.568;18.734;2023-08-17T02:15:46;16.37;;;10.90;;
51758;SDS011;66684;47.568;18.734;2023-08-17T02:18:12;16.60;;;10.38;;
51758;SDS011;66684;47.568;18.734;2023-08-17T02:20:38;14.43;;;10.63;;
51758;SDS011;66684;47.568;18.734;2023-08-17T02:23:04;14.45;;;10.48;;
51758;SDS011;66684;47.568;18.734;2023-08-17T02:25:30;17.10;;;10.73;;
51758;SDS011;66684;47.568;18.734;2023-08-17T02:28:01;14.90;;;11.25;;
51758;SDS011;66684;47.568;18.734;2023-08-17T02:30:27;15.88;;;10.77;;
51758;SDS011;66684;47.568;18.734;2023-08-17T02:32:54;15.88;;;10.73;;
51758;SDS011;66684;47.568;18.734;2023-08-17T02:35:20;12.32;;;11.12;;
51758;SDS011;66684;47.568;18.734;2023-08-17T02:37:46;15.10;;;12.68;;
51758;SDS011;66684;47.568;18.734;2023-08-17T02:40:12;16.20;;;11.82;;
51758;SDS011;66684;47.568;18.734;2023-08-17T02:42:38;14.13;;;11.88;;
51758;SDS011;66684;47.568;18.734;2023-08-17T02:45:06;12.30;;;11.02;;
51758;SDS011;66684;47.568;18.734;2023-08-17T02:47:32;14.80;;;11.60;;
51758;SDS011;66684;47.568;18.734;2023-08-17T02:49:58;12.93;;;11.65;;
51758;SDS011;66684;47.568;18.734;2023-08-17T02:52:24;15.95;;;11.95;;
51758;SDS011;66684;47.568;18.734;2023-08-17T02:54:50;20.48;;;11.95;;
51758;SDS011;66684;47.568;18.734;2023-08-17T02:57:16;19.30;;;11.32;;
51758;SDS011;66684;47.568;18.734;2023-08-17T02:59:43;15.25;;;11.12;;
51758;SDS011;66684;47.568;18.734;2023-08-17T03:02:09;16.40;;;11.63;;
51758;SDS011;66684;47.568;18.734;2023-08-17T03:04:35;18.65;;;10.95;;
51758;SDS011;66684;47.568;18.734;2023-08-17T03:07:01;13.50;;;11.45;;
51758;SDS011;66684;47.568;18.734;2023-08-17T03:09:27;13.52;;;11.15;;
51758;SDS011;66684;47.568;18.734;2023-08-17T03:11:53;12.13;;;10.82;;
51758;SDS011;66684;47.568;18.734;2023-08-17T03:14:19;10.88;;;9.73;;
51758;SDS011;66684;47.568;18.734;2023-08-17T03:16:45;13.93;;;10.55;;
51758;SDS011;66684;47.568;18.734;2023-08-17T03:19:11;15.32;;;11.20;;
51758;SDS011;66684;47.568;18.734;2023-08-17T03:21:37;13.60;;;10.68;;
51758;SDS011;66684;47.568;18.734;2023-08-17T03:24:03;13.30;;;11.52;;
51758;SDS011;66684;47.568;18.734;2023-08-17T03:26:29;14.43;;;10.70;;
51758;SDS011;66684;47.568;18.734;2023-08-17T03:28:55;13.93;;;10.85;;
51758;SDS011;66684;47.568;18.734;2023-08-17T03:31:21;12.80;;;9.48;;
51758;SDS011;66684;47.568;18.734;2023-08-17T03:33:47;13.00;;;10.60;;
51758;SDS011;66684;47.568;18.734;2023-08-17T03:36:13;12.10;;;9.23;;
51758;SDS011;66684;47.568;18.734;2023-08-17T03:38:39;12.65;;;10.18;;
51758;SDS011;66684;47.568;18.734;2023-08-17T03:41:05;11.82;;;9.98;;
51758;SDS011;66684;47.568;18.734;2023-08-17T03:43:32;11.95;;;9.73;;
51758;SDS011;66684;47.568;18.734;2023-08-17T03:45:58;10.68;;;9.57;;
51758;SDS011;66684;47.568;18.734;2023-08-17T03:48:24;12.43;;;10.10;;
51758;SDS011;66684;47.568;18.734;2023-08-17T03:50:51;11.27;;;9.60;;
51758;SDS011;66684;47.568;18.734;2023-08-17T03:53:18;14.00;;;9.23;;
51758;SDS011;66684;47.568;18.734;2023-08-17T03:55:48;10.68;;;9.07;;
51758;SDS011;66684;47.568;18.734;2023-08-17T03:58:14;11.57;;;9.80;;
51758;SDS011;66684;47.568;18.734;2023-08-17T04:00:41;12.52;;;10.23;;
51758;SDS011;66684;47.568;18.734;2023-08-17T04:03:07;11.90;;;9.90;;
51758;SDS011;66684;47.568;18.734;2023-08-17T04:05:33;10.63;;;9.25;;
51758;SDS011;66684;47.568;18.734;2023-08-17T04:08:02;10.65;;;9.55;;
51758;SDS011;66684;47.568;18.734;2023-08-17T04:10:29;14.40;;;10.07;;
51758;SDS011;66684;47.568;18.734;2023-08-17T04:12:56;10.80;;;9.52;;
51758;SDS011;66684;47.568;18.734;2023-08-17T04:15:22;13.55;;;9.57;;
51758;SDS011;66684;47.568;18.734;2023-08-17T04:17:48;12.25;;;9.05;;
51758;SDS011;66684;47.568;18.734;2023-08-17T04:20:14;11.40;;;8.52;;
51758;SDS011;66684;47.568;18.734;2023-08-17T04:22:40;13.60;;;9.23;;
51758;SDS011;66684;47.568;18.734;2023-08-17T04:25:06;14.15;;;10.02;;
51758;SDS011;66684;47.568;18.734;2023-08-17T04:27:33;14.05;;;8.98;;
51758;SDS011;66684;47.568;18.734;2023-08-17T04:30:00;10.77;;;8.57;;
51758;SDS011;66684;47.568;18.734;2023-08-17T04:32:26;13.35;;;9.55;;
51758;SDS011;66684;47.568;18.734;2023-08-17T04:34:52;15.45;;;9.20;;
51758;SDS011;66684;47.568;18.734;2023-08-17T04:37:18;15.63;;;9.60;;
51758;SDS011;66684;47.568;18.734;2023-08-17T04:39:43;13.27;;;8.93;;
51758;SDS011;66684;47.568;18.734;2023-08-17T04:42:09;11.85;;;9.15;;
51758;SDS011;66684;47.568;18.734;2023-08-17T04:44:35;10.10;;;8.07;;
51758;SDS011;66684;47.568;18.734;2023-08-17T04:47:02;13.50;;;9.15;;
51758;SDS011;66684;47.568;18.734;2023-08-17T04:49:27;9.18;;;8.30;;
51758;SDS011;66684;47.568;18.734;2023-08-17T04:51:53;15.00;;;8.85;;
51758;SDS011;66684;47.568;18.734;2023-08-17T04:54:19;10.48;;;9.07;;
51758;SDS011;66684;47.568;18.734;2023-08-17T04:56:45;10.70;;;9.02;;
51758;SDS011;66684;47.568;18.734;2023-08-17T04:59:11;9.95;;;8.85;;
51758;SDS011;66684;47.568;18.734;2023-08-17T05:01:37;11.88;;;8.82;;
51758;SDS011;66684;47.568;18.734;2023-08-17T05:04:04;10.95;;;9.30;;
51758;SDS011;66684;47.568;18.734;2023-08-17T05:06:30;11.65;;;8.07;;
51758;SDS011;66684;47.568;18.734;2023-08-17T05:08:57;10.70;;;8.57;;
51758;SDS011;66684;47.568;18.734;2023-08-17T05:11:23;15.55;;;9.88;;
51758;SDS011;66684;47.568;18.734;2023-08-17T05:13:49;10.82;;;9.77;;
51758;SDS011;66684;47.568;18.734;2023-08-17T05:16:14;13.35;;;9.23;;
51758;SDS011;66684;47.568;18.734;2023-08-17T05:18:40;14.10;;;10.00;;
51758;SDS011;66684;47.568;18.734;2023-08-17T05:21:06;10.13;;;9.05;;
51758;SDS011;66684;47.568;18.734;2023-08-17T05:23:32;10.07;;;9.00;;
51758;SDS011;66684;47.568;18.734;2023-08-17T05:25:58;13.52;;;8.57;;
51758;SDS011;66684;47.568;18.734;2023-08-17T05:28:24;9.55;;;8.00;;
51758;SDS011;66684;47.568;18.734;2023-08-17T05:30:50;8.45;;;7.55;;
51758;SDS011;66684;47.568;18.734;2023-08-17T05:33:16;10.15;;;7.50;;
51758;SDS011;66684;47.568;18.734;2023-08-17T05:35:42;9.00;;;6.82;;
51758;SDS011;66684;47.568;18.734;2023-08-17T05:38:08;10.50;;;7.30;;
51758;SDS011;66684;47.568;18.734;2023-08-17T05:40:35;9.93;;;8.18;;
51758;SDS011;66684;47.568;18.734;2023-08-17T05:43:01;8.88;;;7.90;;
51758;SDS011;66684;47.568;18.734;2023-08-17T05:45:27;12.13;;;8.48;;
51758;SDS011;66684;47.568;18.734;2023-08-17T05:47:53;13.27;;;8.27;;
51758;SDS011;66684;47.568;18.734;2023-08-17T05:50:19;10.30;;;7.90;;
51758;SDS011;66684;47.568;18.734;2023-08-17T05:52:45;11.10;;;7.90;;
51758;SDS011;66684;47.568;18.734;2023-08-17T05:55:11;8.77;;;7.87;;
51758;SDS011;66684;47.568;18.734;2023-08-17T05:57:37;10.02;;;7.25;;
51758;SDS011;66684;47.568;18.734;2023-08-17T06:00:03;7.97;;;6.70;;
51758;SDS011;66684;47.568;18.734;2023-08-17T06:02:29;9.52;;;6.12;;
51758;SDS011;66684;47.568;18.734;2023-08-17T06:04:55;10.98;;;6.80;;
51758;SDS011;66684;47.568;18.734;2023-08-17T06:07:21;9.68;;;5.18;;
51758;SDS011;66684;47.568;18.734;2023-08-17T06:09:47;8.98;;;6.07;;
51758;SDS011;66684;47.568;18.734;2023-08-17T06:12:13;8.40;;;5.90;;
51758;SDS011;66684;47.568;18.734;2023-08-17T06:14:39;7.45;;;5.90;;
51758;SDS011;66684;47.568;18.734;2023-08-17T06:17:04;9.10;;;6.53;;
51758;SDS011;66684;47.568;18.734;2023-08-17T06:19:30;9.60;;;7.10;;
51758;SDS011;66684;47.568;18.734;2023-08-17T06:21:56;10.35;;;7.03;;
51758;SDS011;66684;47.568;18.734;2023-08-17T06:24:22;8.10;;;7.30;;
51758;SDS011;66684;47.568;18.734;2023-08-17T06:26:48;10.38;;;7.22;;
51758;SDS011;66684;47.568;18.734;2023-08-17T06:29:14;11.02;;;7.82;;
51758;SDS011;66684;47.568;18.734;2023-08-17T06:31:40;13.27;;;8.50;;
51758;SDS011;66684;47.568;18.734;2023-08-17T06:34:06;10.75;;;8.15;;
51758;SDS011;66684;47.568;18.734;2023-08-17T06:36:32;17.08;;;8.93;;
51758;SDS011;66684;47.568;18.734;2023-08-17T06:38:58;12.20;;;9.07;;
51758;SDS011;66684;47.568;18.734;2023-08-17T06:41:24;14.10;;;8.70;;
51758;SDS011;66684;47.568;18.734;2023-08-17T06:43:51;9.98;;;7.37;;
51758;SDS011;66684;47.568;18.734;2023-08-17T06:46:17;10.02;;;7.55;;
51758;SDS011;66684;47.568;18.734;2023-08-17T06:48:43;8.82;;;7.93;;
51758;SDS011;66684;47.568;18.734;2023-08-17T06:51:09;12.68;;;7.55;;
51758;SDS011;66684;47.568;18.734;2023-08-17T06:53:35;11.48;;;6.87;;
51758;SDS011;66684;47.568;18.734;2023-08-17T06:56:01;11.68;;;6.68;;
51758;SDS011;66684;47.568;18.734;2023-08-17T06:58:27;7.95;;;6.85;;
51758;SDS011;66684;47.568;18.734;2023-08-17T07:00:52;10.38;;;7.40;;
51758;SDS011;66684;47.568;18.734;2023-08-17T07:03:18;11.73;;;6.90;;
51758;SDS011;66684;47.568;18.734;2023-08-17T07:05:45;9.77;;;6.90;;
51758;SDS011;66684;47.568;18.734;2023-08-17T07:08:11;9.30;;;6.18;;
51758;SDS011;66684;47.568;18.734;2023-08-17T07:10:38;9.68;;;6.55;;
51758;SDS011;66684;47.568;18.734;2023-08-17T07:13:04;9.38;;;6.60;;
51758;SDS011;66684;47.568;18.734;2023-08-17T07:15:30;11.05;;;7.03;;
51758;SDS011;66684;47.568;18.734;2023-08-17T07:17:56;8.98;;;6.20;;
51758;SDS011;66684;47.568;18.734;2023-08-17T07:20:22;7.60;;;6.18;;
51758;SDS011;66684;47.568;18.734;2023-08-17T07:22:48;12.02;;;5.95;;
51758;SDS011;66684;47.568;18.734;2023-08-17T07:25:14;8.85;;;6.22;;
51758;SDS011;66684;47.568;18.734;2023-08-17T07:27:41;9.73;;;6.28;;
51758;SDS011;66684;47.568;18.734;2023-08-17T07:30:07;9.85;;;5.60;;
51758;SDS011;66684;47.568;18.734;2023-08-17T07:32:34;9.65;;;5.57;;
51758;SDS011;66684;47.568;18.734;2023-08-17T07:34:59;8.88;;;5.55;;
51758;SDS011;66684;47.568;18.734;2023-08-17T07:37:25;10.48;;;5.70;;
51758;SDS011;66684;47.568;18.734;2023-08-17T07:39:58;8.75;;;5.62;;
51758;SDS011;66684;47.568;18.734;2023-08-17T07:42:24;12.07;;;5.47;;
51758;SDS011;66684;47.568;18.734;2023-08-17T07:44:50;8.07;;;5.00;;
51758;SDS011;66684;47.568;18.734;2023-08-17T07:47:16;9.65;;;6.03;;
51758;SDS011;66684;47.568;18.734;2023-08-17T07:49:42;7.12;;;5.53;;
51758;SDS011;66684;47.568;18.734;2023-08-17T07:52:08;10.80;;;6.53;;
51758;SDS011;66684;47.568;18.734;2023-08-17T07:54:34;9.52;;;5.28;;
51758;SDS011;66684;47.568;18.734;2023-08-17T07:57:00;11.60;;;6.15;;
51758;SDS011;66684;47.568;18.734;2023-08-17T07:59:26;12.18;;;5.82;;
51758;SDS011;66684;47.568;18.734;2023-08-17T08:01:52;9.95;;;5.62;;
51758;SDS011;66684;47.568;18.734;2023-08-17T08:04:18;8.05;;;5.82;;
51758;SDS011;66684;47.568;18.734;2023-08-17T08:06:44;8.82;;;5.87;;
51758;SDS011;66684;47.568;18.734;2023-08-17T08:09:09;6.93;;;5.68;;
51758;SDS011;66684;47.568;18.734;2023-08-17T08:11:35;7.25;;;5.85;;
51758;SDS011;66684;47.568;18.734;2023-08-17T08:14:01;7.37;;;5.37;;
51758;SDS011;66684;47.568;18.734;2023-08-17T08:16:27;8.57;;;5.70;;
51758;SDS011;66684;47.568;18.734;2023-08-17T08:18:56;8.75;;;5.70;;
51758;SDS011;66684;47.568;18.734;2023-08-17T08:21:22;6.95;;;6.20;;
51758;SDS011;66684;47.568;18.734;2023-08-17T08:23:48;11.20;;;5.68;;
51758;SDS011;66684;47.568;18.734;2023-08-17T08:26:14;7.85;;;6.18;;
51758;SDS011;66684;47.568;18.734;2023-08-17T08:28:40;8.10;;;6.40;;
51758;SDS011;66684;47.568;18.734;2023-08-17T08:31:06;7.28;;;5.47;;
51758;SDS011;66684;47.568;18.734;2023-08-17T08:33:31;10.50;;;6.40;;
51758;SDS011;66684;47.568;18.734;2023-08-17T08:35:57;7.57;;;6.32;;
51758;SDS011;66684;47.568;18.734;2023-08-17T08:38:23;9.27;;;6.62;;
51758;SDS011;66684;47.568;18.734;2023-08-17T08:40:50;9.40;;;7.15;;
51758;SDS011;66684;47.568;18.734;2023-08-17T08:43:16;7.30;;;6.55;;
51758;SDS011;66684;47.568;18.734;2023-08-17T08:45:43;10.38;;;6.07;;
51758;SDS011;66684;47.568;18.734;2023-08-17T08:48:12;10.00;;;6.45;;
51758;SDS011;66684;47.568;18.734;2023-08-17T08:50:39;11.82;;;6.75;;
51758;SDS011;66684;47.568;18.734;2023-08-17T08:53:10;7.47;;;6.28;;
51758;SDS011;66684;47.568;18.734;2023-08-17T08:55:52;7.30;;;6.00;;
51758;SDS011;66684;47.568;18.734;2023-08-17T08:58:26;8.95;;;5.90;;
51758;SDS011;66684;47.568;18.734;2023-08-17T09:00:54;7.05;;;6.18;;
51758;SDS011;66684;47.568;18.734;2023-08-17T09:03:22;8.10;;;6.20;;
51758;SDS011;66684;47.568;18.734;2023-08-17T09:05:50;10.50;;;7.30;;
51758;SDS011;66684;47.568;18.734;2023-08-17T09:08:21;7.50;;;6.50;;
51758;SDS011;66684;47.568;18.734;2023-08-17T09:10:53;11.27;;;5.87;;
51758;SDS011;66684;47.568;18.734;2023-08-17T09:13:19;8.55;;;5.72;;
51758;SDS011;66684;47.568;18.734;2023-08-17T09:15:44;7.93;;;6.70;;
51758;SDS011;66684;47.568;18.734;2023-08-17T09:18:10;7.87;;;5.45;;
51758;SDS011;66684;47.568;18.734;2023-08-17T09:23:17;7.22;;;5.95;;
51758;SDS011;66684;47.568;18.734;2023-08-17T09:25:45;7.93;;;6.30;;
51758;SDS011;66684;47.568;18.734;2023-08-17T09:28:13;9.13;;;6.82;;
51758;SDS011;66684;47.568;18.734;2023-08-17T09:33:22;6.05;;;5.45;;
51758;SDS011;66684;47.568;18.734;2023-08-17T09:35:50;9.80;;;5.65;;
51758;SDS011;66684;47.568;18.734;2023-08-17T09:38:17;9.02;;;5.55;;
51758;SDS011;66684;47.568;18.734;2023-08-17T09:40:44;8.45;;;5.78;;
51758;SDS011;66684;47.568;18.734;2023-08-17T09:43:11;7.22;;;5.50;;
51758;SDS011;66684;47.568;18.734;2023-08-17T09:45:38;9.02;;;5.68;;
51758;SDS011;66684;47.568;18.734;2023-08-17T09:48:05;6.68;;;5.68;;
51758;SDS011;66684;47.568;18.734;2023-08-17T09:50:32;7.35;;;6.15;;
51758;SDS011;66684;47.568;18.734;2023-08-17T09:52:58;7.37;;;5.75;;
51758;SDS011;66684;47.568;18.734;2023-08-17T09:55:24;7.20;;;6.32;;
51758;SDS011;66684;47.568;18.734;2023-08-17T09:57:50;9.55;;;6.10;;
51758;SDS011;66684;47.568;18.734;2023-08-17T12:00:39;8.13;;;4.50;;
51758;SDS011;66684;47.568;18.734;2023-08-17T12:03:08;4.82;;;4.18;;
51758;SDS011;66684;47.568;18.734;2023-08-17T12:05:33;5.30;;;4.20;;
51758;SDS011;66684;47.568;18.734;2023-08-17T12:08:00;5.82;;;4.53;;
51758;SDS011;66684;47.568;18.734;2023-08-17T12:10:27;7.50;;;4.78;;
51758;SDS011;66684;47.568;18.734;2023-08-17T12:12:59;7.05;;;4.82;;
51758;SDS011;66684;47.568;18.734;2023-08-17T12:15:32;8.15;;;4.37;;
51758;SDS011;66684;47.568;18.734;2023-08-17T12:18:00;4.55;;;4.05;;
51758;SDS011;66684;47.568;18.734;2023-08-17T12:20:27;6.28;;;4.65;;
51758;SDS011;66684;47.568;18.734;2023-08-17T12:22:53;5.65;;;4.93;;
51758;SDS011;66684;47.568;18.734;2023-08-17T12:25:22;5.22;;;4.50;;
51758;SDS011;66684;47.568;18.734;2023-08-17T12:27:49;6.35;;;4.90;;
51758;SDS011;66684;47.568;18.734;2023-08-17T12:30:28;7.47;;;4.57;;
51758;SDS011;66684;47.568;18.734;2023-08-17T12:32:57;6.47;;;4.50;;
51758;SDS011;66684;47.568;18.734;2023-08-17T12:35:23;6.32;;;4.68;;
51758;SDS011;66684;47.568;18.734;2023-08-17T12:37:50;6.00;;;4.72;;
51758;SDS011;66684;47.568;18.734;2023-08-17T12:40:17;5.55;;;4.40;;
51758;SDS011;66684;47.568;18.734;2023-08-17T12:42:43;8.23;;;4.80;;
51758;SDS011;66684;47.568;18.734;2023-08-17T12:45:09;9.10;;;4.60;;
51758;SDS011;66684;47.568;18.734;2023-08-17T12:47:35;6.80;;;4.55;;
51758;SDS011;66684;47.568;18.734;2023-08-17T12:50:01;6.05;;;4.50;;
51758;SDS011;66684;47.568;18.734;2023-08-17T12:52:29;5.78;;;4.62;;
51758;SDS011;66684;47.568;18.734;2023-08-17T12:54:55;6.47;;;4.47;;
51758;SDS011;66684;47.568;18.734;2023-08-17T12:57:21;10.38;;;4.62;;
51758;SDS011;66684;47.568;18.734;2023-08-17T12:59:46;8.65;;;5.10;;
51758;SDS011;66684;47.568;18.734;2023-08-17T13:02:12;6.93;;;4.47;;
51758;SDS011;66684;47.568;18.734;2023-08-17T13:04:39;5.57;;;4.65;;
51758;SDS011;66684;47.568;18.734;2023-08-17T13:07:05;5.85;;;4.72;;
51758;SDS011;66684;47.568;18.734;2023-08-17T13:09:31;6.93;;;4.65;;
51758;SDS011;66684;47.568;18.734;2023-08-17T13:11:57;10.05;;;4.43;;
51758;SDS011;66684;47.568;18.734;2023-08-17T13:14:23;5.47;;;4.60;;
51758;SDS011;66684;47.568;18.734;2023-08-17T13:16:49;5.95;;;4.07;;
51758;SDS011;66684;47.568;18.734;2023-08-17T13:19:15;9.10;;;4.00;;
51758;SDS011;66684;47.568;18.734;2023-08-17T13:21:41;6.75;;;4.22;;
51758;SDS011;66684;47.568;18.734;2023-08-17T13:24:07;9.40;;;4.35;;
51758;SDS011;66684;47.568;18.734;2023-08-17T13:26:34;6.47;;;3.87;;
51758;SDS011;66684;47.568;18.734;2023-08-17T13:29:00;4.62;;;4.00;;
51758;SDS011;66684;47.568;18.734;2023-08-17T13:31:26;6.72;;;4.03;;
51758;SDS011;66684;47.568;18.734;2023-08-17T13:33:52;6.90;;;4.28;;
51758;SDS011;66684;47.568;18.734;2023-08-17T13:36:18;6.18;;;4.65;;
51758;SDS011;66684;47.568;18.734;2023-08-17T13:38:44;7.30;;;4.85;;
51758;SDS011;66684;47.568;18.734;2023-08-17T13:41:11;4.87;;;4.30;;
51758;SDS011;66684;47.568;18.734;2023-08-17T13:43:37;8.02;;;4.65;;
51758;SDS011;66684;47.568;18.734;2023-08-17T13:46:04;8.32;;;4.65;;
51758;SDS011;66684;47.568;18.734;2023-08-17T13:48:30;9.00;;;4.68;;
51758;SDS011;66684;47.568;18.734;2023-08-17T13:50:56;6.25;;;4.35;;
51758;SDS011;66684;47.568;18.734;2023-08-17T13:53:22;8.25;;;4.93;;
51758;SDS011;66684;47.568;18.734;2023-08-17T13:55:48;6.47;;;4.57;;
51758;SDS011;66684;47.568;18.734;2023-08-17T13:58:14;8.35;;;5.00;;
51758;SDS011;66684;47.568;18.734;2023-08-17T14:00:41;9.80;;;4.45;;
51758;SDS011;66684;47.568;18.734;2023-08-17T14:03:07;7.07;;;5.30;;
51758;SDS011;66684;47.568;18.734;2023-08-17T14:05:33;7.60;;;5.28;;
51758;SDS011;66684;47.568;18.734;2023-08-17T14:08:00;7.85;;;5.82;;
51758;SDS011;66684;47.568;18.734;2023-08-17T14:10:26;6.25;;;5.35;;
51758;SDS011;66684;47.568;18.734;2023-08-17T14:12:51;8.98;;;5.25;;
51758;SDS011;66684;47.568;18.734;2023-08-17T14:15:17;6.78;;;5.32;;
51758;SDS011;66684;47.568;18.734;2023-08-17T14:17:43;8.43;;;5.35;;
51758;SDS011;66684;47.568;18.734;2023-08-17T14:20:09;6.20;;;5.32;;
51758;SDS011;66684;47.568;18.734;2023-08-17T14:22:35;9.45;;;5.43;;
51758;SDS011;66684;47.568;18.734;2023-08-17T14:25:01;6.00;;;5.40;;
51758;SDS011;66684;47.568;18.734;2023-08-17T14:27:28;7.12;;;5.60;;
51758;SDS011;66684;47.568;18.734;2023-08-17T14:29:54;6.40;;;5.55;;
51758;SDS011;66684;47.568;18.734;2023-08-17T14:32:21;8.38;;;5.15;;
51758;SDS011;66684;47.568;18.734;2023-08-17T14:34:47;7.93;;;5.87;;
51758;SDS011;66684;47.568;18.734;2023-08-17T14:37:13;6.50;;;5.53;;
51758;SDS011;66684;47.568;18.734;2023-08-17T14:39:39;8.10;;;5.68;;
51758;SDS011;66684;47.568;18.734;2023-08-17T14:42:04;7.65;;;5.35;;
51758;SDS011;66684;47.568;18.734;2023-08-17T14:44:30;9.65;;;5.18;;
51758;SDS011;66684;47.568;18.734;2023-08-17T14:46:56;6.95;;;5.15;;
51758;SDS011;66684;47.568;18.734;2023-08-17T14:49:22;6.85;;;5.07;;
51758;SDS011;66684;47.568;18.734;2023-08-17T14:51:48;7.80;;;5.50;;
51758;SDS011;66684;47.568;18.734;2023-08-17T14:54:14;7.68;;;5.20;;
51758;SDS011;66684;47.568;18.734;2023-08-17T14:56:40;6.07;;;5.20;;
51758;SDS011;66684;47.568;18.734;2023-08-17T14:59:06;8.27;;;5.18;;
51758;SDS011;66684;47.568;18.734;2023-08-17T15:01:31;7.40;;;5.10;;
51758;SDS011;66684;47.568;18.734;2023-08-17T15:03:57;8.25;;;4.95;;
51758;SDS011;66684;47.568;18.734;2023-08-17T15:06:42;6.20;;;5.53;;
51758;SDS011;66684;47.568;18.734;2023-08-17T15:09:08;9.45;;;5.22;;
51758;SDS011;66684;47.568;18.734;2023-08-17T15:11:35;5.40;;;4.40;;
51758;SDS011;66684;47.568;18.734;2023-08-17T15:14:01;8.75;;;5.18;;
51758;SDS011;66684;47.568;18.734;2023-08-17T15:16:27;7.18;;;6.00;;
51758;SDS011;66684;47.568;18.734;2023-08-17T15:18:54;7.20;;;5.20;;
51758;SDS011;66684;47.568;18.734;2023-08-17T15:21:21;12.23;;;5.00;;
51758;SDS011;66684;47.568;18.734;2023-08-17T15:23:47;7.60;;;5.60;;
51758;SDS011;66684;47.568;18.734;2023-08-17T15:26:13;7.72;;;5.40;;
51758;SDS011;66684;47.568;18.734;2023-08-17T15:28:42;9.52;;;5.12;;
51758;SDS011;66684;47.568;18.734;2023-08-17T15:31:08;11.00;;;5.43;;
51758;SDS011;66684;47.568;18.734;2023-08-17T15:33:41;9.10;;;5.00;;
51758;SDS011;66684;47.568;18.734;2023-08-17T15:36:07;8.10;;;4.87;;
51758;SDS011;66684;47.568;18.734;2023-08-17T15:38:33;6.30;;;4.62;;
51758;SDS011;66684;47.568;18.734;2023-08-17T15:40:59;7.15;;;4.45;;
51758;SDS011;66684;47.568;18.734;2023-08-17T15:43:25;9.35;;;4.62;;
51758;SDS011;66684;47.568;18.734;2023-08-17T15:45:51;7.03;;;4.75;;
51758;SDS011;66684;47.568;18.734;2023-08-17T15:48:18;6.80;;;4.28;;
51758;SDS011;66684;47.568;18.734;2023-08-17T15:50:44;7.25;;;4.55;;
51758;SDS011;66684;47.568;18.734;2023-08-17T15:53:10;4.93;;;4.40;;
51758;SDS011;66684;47.568;18.734;2023-08-17T15:55:36;5.55;;;4.45;;
51758;SDS011;66684;47.568;18.734;2023-08-17T15:58:02;5.10;;;4.10;;
51758;SDS011;66684;47.568;18.734;2023-08-17T16:00:28;7.45;;;4.28;;
51758;SDS011;66684;47.568;18.734;2023-08-17T16:02:53;7.15;;;4.45;;
51758;SDS011;66684;47.568;18.734;2023-08-17T16:05:19;5.65;;;4.18;;
51758;SDS011;66684;47.568;18.734;2023-08-17T16:07:45;6.12;;;4.68;;
51758;SDS011;66684;47.568;18.734;2023-08-17T16:10:11;5.28;;;4.75;;
51758;SDS011;66684;47.568;18.734;2023-08-17T16:12:37;7.45;;;4.95;;
51758;SDS011;66684;47.568;18.734;2023-08-17T16:15:03;8.73;;;5.78;;
51758;SDS011;66684;47.568;18.734;2023-08-17T16:17:29;8.25;;;4.93;;
51758;SDS011;66684;47.568;18.734;2023-08-17T16:19:56;7.18;;;5.30;;
51758;SDS011;66684;47.568;18.734;2023-08-17T16:22:21;8.18;;;4.85;;
51758;SDS011;66684;47.568;18.734;2023-08-17T16:24:47;6.57;;;4.68;;
51758;SDS011;66684;47.568;18.734;2023-08-17T16:27:13;6.85;;;5.18;;
51758;SDS011;66684;47.568;18.734;2023-08-17T16:29:39;6.82;;;5.12;;